createdAt,value
2019-05-25T00:00:32.424Z,99.90
2019-05-25T00:02:59.867Z,99.90
2019-05-25T00:05:28.863Z,99.90
2019-05-25T00:07:56.507Z,99.90
2019-05-25T00:10:24.072Z,99.90
2019-05-25T00:12:53.267Z,99.90
2019-05-25T00:15:20.537Z,99.90
2019-05-25T00:17:49.720Z,99.90
2019-05-25T00:20:18.509Z,99.90
2019-05-25T00:22:45.868Z,99.90
2019-05-25T00:25:13.165Z,99.90
2019-05-25T00:27:40.702Z,99.90
2019-05-25T00:30:08.504Z,99.90
2019-05-25T00:32:35.752Z,99.90
2019-05-25T00:35:03.106Z,99.90
2019-05-25T00:37:30.340Z,99.90
2019-05-25T00:39:57.631Z,99.90
2019-05-25T00:42:25.230Z,99.90
2019-05-25T00:44:52.764Z,99.90
2019-05-25T00:47:20.117Z,99.90
2019-05-25T00:49:49.208Z,99.90
2019-05-25T00:52:18.244Z,99.90
2019-05-25T00:54:45.495Z,99.90
2019-05-25T00:57:12.785Z,99.90
2019-05-25T00:59:40.368Z,99.90
2019-05-25T01:02:07.930Z,99.90
2019-05-25T01:04:35.188Z,99.90
2019-05-25T01:07:03.493Z,99.90
2019-05-25T01:09:31.828Z,99.90
2019-05-25T01:11:59.541Z,99.90
2019-05-25T01:14:27.156Z,99.90
2019-05-25T01:16:54.533Z,99.90
2019-05-25T01:19:21.860Z,99.90
2019-05-25T01:21:49.257Z,99.90
2019-05-25T01:24:16.529Z,99.90
2019-05-25T01:26:44.236Z,99.90
2019-05-25T01:29:11.512Z,99.90
2019-05-25T01:31:39.155Z,99.90
2019-05-25T01:34:06.406Z,99.90
2019-05-25T01:36:34.145Z,99.90
2019-05-25T01:39:01.502Z,99.90
2019-05-25T01:41:28.943Z,99.90
2019-05-25T01:43:56.632Z,99.90
2019-05-25T01:46:24.053Z,99.90
2019-05-25T01:48:51.711Z,99.90
2019-05-25T01:51:19.097Z,99.90
2019-05-25T01:53:46.682Z,99.90
2019-05-25T01:56:14.012Z,99.90
2019-05-25T01:58:41.306Z,99.90
2019-05-25T02:01:08.968Z,99.90
2019-05-25T02:03:36.327Z,99.90
2019-05-25T02:06:03.742Z,99.90
2019-05-25T02:08:31.074Z,99.90
2019-05-25T02:10:58.361Z,99.90
2019-05-25T02:13:25.652Z,99.90
2019-05-25T02:15:54.235Z,99.90
2019-05-25T02:18:21.557Z,99.90
2019-05-25T02:20:50.876Z,99.90
2019-05-25T02:23:18.456Z,99.90
2019-05-25T02:25:46.633Z,99.90
2019-05-25T02:28:14.336Z,99.90
2019-05-25T02:30:41.752Z,99.90
2019-05-25T02:33:09.190Z,99.90
2019-05-25T02:35:36.517Z,99.90
2019-05-25T02:38:04.203Z,99.90
2019-05-25T02:40:31.368Z,99.90
2019-05-25T02:42:58.985Z,99.90
2019-05-25T02:45:26.227Z,99.90
2019-05-25T02:47:53.573Z,99.90
2019-05-25T02:50:20.821Z,99.90
2019-05-25T02:52:48.125Z,99.90
2019-05-25T02:55:15.464Z,99.90
2019-05-25T02:57:42.929Z,99.90
2019-05-25T03:00:10.470Z,99.90
2019-05-25T03:02:37.785Z,99.90
2019-05-25T03:05:05.496Z,99.90
2019-05-25T03:07:34.584Z,99.90
2019-05-25T03:10:03.569Z,99.90
2019-05-25T03:12:32.085Z,99.90
2019-05-25T03:14:59.317Z,99.90
2019-05-25T03:17:26.712Z,99.90
2019-05-25T03:19:53.986Z,99.90
2019-05-25T03:22:21.445Z,99.90
2019-05-25T03:24:48.679Z,99.90
2019-05-25T03:27:15.980Z,99.90
2019-05-25T03:29:43.230Z,99.90
2019-05-25T03:32:10.877Z,99.90
2019-05-25T03:34:38.213Z,99.90
2019-05-25T03:37:05.641Z,99.90
2019-05-25T03:39:33.280Z,99.90
2019-05-25T03:42:00.680Z,99.90
2019-05-25T03:44:27.812Z,99.90
2019-05-25T03:46:55.088Z,99.90
2019-05-25T03:49:22.384Z,99.90
2019-05-25T03:51:49.663Z,99.90
2019-05-25T03:54:16.900Z,99.90
2019-05-25T03:56:44.517Z,99.90
2019-05-25T03:59:11.755Z,99.90
2019-05-25T04:01:38.981Z,99.90
2019-05-25T04:04:06.375Z,99.90
2019-05-25T04:06:33.700Z,99.90
2019-05-25T04:09:01.160Z,99.90
2019-05-25T04:11:28.358Z,99.90
2019-05-25T04:13:56.016Z,99.90
2019-05-25T04:16:23.664Z,99.90
2019-05-25T04:18:51.239Z,99.90
2019-05-25T04:21:18.877Z,99.90
2019-05-25T04:23:46.432Z,99.90
2019-05-25T04:26:21.968Z,99.90
2019-05-25T04:28:42.897Z,99.90
2019-05-25T04:31:10.596Z,99.90
2019-05-25T04:33:38.320Z,99.90
2019-05-25T04:36:05.651Z,99.90
2019-05-25T04:38:33.047Z,99.90
2019-05-25T04:41:00.316Z,99.90
2019-05-25T04:43:27.709Z,99.90
2019-05-25T04:45:55.057Z,99.90
2019-05-25T04:48:22.509Z,99.90
2019-05-25T04:50:49.847Z,99.90
2019-05-25T04:53:17.170Z,99.90
2019-05-25T04:55:44.401Z,99.90
2019-05-25T04:58:12.084Z,99.90
2019-05-25T05:00:39.512Z,99.90
2019-05-25T05:03:06.847Z,99.90
2019-05-25T05:05:34.289Z,99.90
2019-05-25T05:08:01.954Z,99.90
2019-05-25T05:10:29.284Z,99.90
2019-05-25T05:12:56.660Z,99.90
2019-05-25T05:15:24.418Z,99.90
2019-05-25T05:18:00.353Z,99.90
2019-05-25T05:20:29.767Z,99.90
2019-05-25T05:22:57.140Z,99.90
2019-05-25T05:25:24.396Z,99.90
2019-05-25T05:27:51.688Z,99.90
2019-05-25T05:30:29.131Z,99.90
2019-05-25T05:32:56.660Z,99.90
2019-05-25T05:35:23.968Z,99.90
2019-05-25T05:37:51.707Z,99.90
2019-05-25T05:40:18.954Z,99.90
2019-05-25T05:42:48.449Z,99.90
2019-05-25T05:45:16.015Z,99.90
2019-05-25T05:47:46.152Z,99.90
2019-05-25T05:50:13.628Z,99.90
2019-05-25T05:52:41.065Z,99.90
2019-05-25T05:55:09.836Z,99.90
2019-05-25T05:57:37.177Z,99.90
2019-05-25T06:00:05.212Z,99.90
2019-05-25T06:02:32.702Z,99.90
2019-05-25T06:05:00.086Z,99.90
2019-05-25T06:07:27.621Z,99.90
2019-05-25T06:09:55.019Z,99.90
2019-05-25T06:12:22.250Z,99.90
2019-05-25T06:14:49.674Z,99.90
2019-05-25T06:17:16.935Z,99.90
2019-05-25T06:19:44.628Z,99.90
2019-05-25T06:22:12.264Z,99.90
2019-05-25T06:24:39.849Z,99.90
2019-05-25T06:27:07.399Z,99.90
2019-05-25T06:29:34.694Z,99.90
2019-05-25T06:32:01.959Z,99.90
2019-05-25T06:34:29.377Z,99.90
2019-05-25T06:36:57.004Z,99.90
2019-05-25T06:39:24.972Z,99.90
2019-05-25T06:42:07.718Z,99.90
2019-05-25T06:44:37.986Z,99.90
2019-05-25T06:47:18.334Z,99.90
2019-05-25T06:49:54.291Z,99.90
2019-05-25T06:52:41.574Z,99.90
2019-05-25T06:55:09.581Z,99.90
2019-05-25T06:57:43.322Z,99.90
2019-05-25T07:00:14.914Z,99.90
2019-05-25T07:02:42.527Z,99.90
2019-05-25T07:05:09.897Z,99.90
2019-05-25T07:07:37.185Z,99.90
2019-05-25T07:10:05.016Z,99.90
2019-05-25T07:12:34.208Z,99.90
2019-05-25T07:15:06.493Z,99.90
2019-05-25T07:17:45.079Z,99.90
2019-05-25T07:20:17.476Z,99.90
2019-05-25T07:22:54.335Z,99.90
2019-05-25T07:25:28.962Z,99.90
2019-05-25T07:28:01.164Z,99.90
2019-05-25T07:30:28.543Z,99.90
2019-05-25T07:33:00.654Z,99.90
2019-05-25T07:35:29.494Z,99.90
2019-05-25T07:40:41.820Z,99.90
2019-05-25T07:43:17.047Z,99.90
2019-05-25T07:45:46.470Z,99.90
2019-05-25T07:48:17.896Z,99.90
2019-05-25T07:50:53.078Z,99.90
2019-05-25T07:53:28.647Z,99.90
2019-05-25T07:55:56.610Z,99.90
2019-05-25T07:58:29.788Z,99.90
2019-05-25T08:00:57.429Z,99.90
2019-05-25T08:03:24.719Z,99.90
2019-05-25T08:05:51.968Z,99.90
2019-05-25T08:08:19.609Z,99.90
2019-05-25T08:10:46.884Z,99.90
2019-05-25T08:13:14.254Z,99.90
2019-05-25T08:15:42.244Z,99.90
2019-05-25T08:18:09.861Z,99.90
2019-05-25T08:20:37.408Z,99.90
2019-05-25T08:23:04.968Z,99.90
2019-05-25T08:25:32.534Z,99.90
2019-05-25T08:28:00.187Z,99.90
2019-05-25T08:30:27.425Z,99.90
2019-05-25T08:32:54.718Z,99.90
2019-05-25T08:35:22.141Z,99.90
2019-05-25T08:37:49.526Z,99.90
2019-05-25T08:40:16.799Z,99.90
2019-05-25T08:42:44.423Z,99.90
2019-05-25T08:45:11.770Z,99.90
2019-05-25T08:47:39.609Z,99.90
2019-05-25T08:50:07.687Z,99.90
2019-05-25T08:52:35.368Z,99.90
2019-05-25T08:55:02.811Z,99.90
2019-05-25T08:57:36.799Z,99.90
2019-05-25T09:00:04.540Z,99.90
2019-05-25T09:02:31.912Z,99.90
2019-05-25T09:04:59.172Z,99.90
2019-05-25T09:07:28.137Z,99.90
2019-05-25T09:09:57.021Z,99.90
2019-05-25T09:12:37.041Z,99.90
2019-05-25T09:15:17.385Z,99.90
2019-05-25T09:17:50.766Z,99.90
2019-05-25T09:20:29.665Z,99.90
2019-05-25T09:23:04.700Z,99.90
2019-05-25T09:25:36.096Z,99.90
2019-05-25T09:28:16.003Z,99.90
2019-05-25T09:30:43.613Z,99.90
2019-05-25T09:33:15.068Z,99.90
2019-05-25T09:35:46.243Z,99.90
2019-05-25T09:38:22.185Z,99.90
2019-05-25T09:40:49.922Z,99.90
2019-05-25T09:43:17.659Z,99.90
2019-05-25T09:45:44.887Z,99.90
2019-05-25T09:48:12.595Z,99.90
2019-05-25T09:50:39.926Z,99.90
2019-05-25T09:53:07.294Z,99.90
2019-05-25T09:55:34.685Z,99.90
2019-05-25T09:58:05.499Z,99.90
2019-05-25T10:00:33.129Z,99.90
2019-05-25T10:03:00.427Z,99.90
2019-05-25T10:05:27.690Z,99.90
2019-05-25T10:07:55.011Z,99.90
2019-05-25T10:10:22.552Z,99.90
2019-05-25T10:12:50.331Z,99.90
2019-05-25T10:15:17.722Z,99.90
2019-05-25T10:17:45.442Z,99.90
2019-05-25T10:20:13.401Z,99.90
2019-05-25T10:22:41.069Z,99.90
2019-05-25T10:25:08.869Z,99.90
2019-05-25T10:27:36.259Z,99.90
2019-05-25T10:30:05.798Z,99.90
2019-05-25T10:32:33.373Z,99.90
2019-05-25T10:35:07.399Z,99.90
2019-05-25T10:37:35.034Z,99.90
2019-05-25T10:40:06.539Z,99.90
2019-05-25T10:42:39.447Z,99.90
2019-05-25T10:45:11.945Z,99.90
2019-05-25T10:47:44.445Z,99.90
2019-05-25T10:50:23.960Z,99.90
2019-05-25T10:52:55.813Z,99.90
2019-05-25T10:55:23.204Z,99.90
2019-05-25T10:57:50.468Z,99.90
2019-05-25T11:00:18.382Z,99.90
2019-05-25T11:02:45.739Z,99.90
2019-05-25T11:05:13.545Z,99.90
2019-05-25T11:07:40.816Z,99.90
2019-05-25T11:10:08.493Z,98.00
2019-05-25T11:12:35.665Z,95.90
2019-05-25T11:15:03.057Z,95.70
2019-05-25T11:17:30.407Z,95.00
2019-05-25T11:19:57.697Z,97.50
2019-05-25T11:22:25.438Z,95.10
2019-05-25T11:24:53.210Z,94.80
2019-05-25T11:27:20.744Z,93.70
2019-05-25T11:29:48.445Z,94.90
2019-05-25T11:32:16.288Z,95.10
2019-05-25T11:34:43.899Z,98.40
2019-05-25T11:37:14.903Z,98.90
2019-05-25T11:39:41.129Z,99.10
2019-05-25T11:42:08.441Z,98.40
2019-05-25T11:44:35.737Z,98.10
2019-05-25T11:47:03.042Z,94.50
2019-05-25T11:49:30.420Z,93.50
2019-05-25T11:51:57.749Z,93.20
2019-05-25T11:54:25.080Z,91.80
2019-05-25T11:56:52.727Z,91.10
2019-05-25T11:59:19.944Z,90.30
2019-05-25T12:01:47.241Z,90.00
2019-05-25T12:04:18.541Z,84.00
2019-05-25T12:06:46.233Z,83.50
2019-05-25T12:09:13.396Z,87.50
2019-05-25T12:11:44.053Z,82.90
2019-05-25T12:14:15.479Z,79.90
2019-05-25T12:16:43.347Z,83.20
2019-05-25T12:19:10.609Z,83.90
2019-05-25T12:21:37.906Z,89.00
2019-05-25T12:24:05.623Z,89.00
2019-05-25T12:26:32.934Z,90.50
2019-05-25T12:29:00.290Z,85.10
2019-05-25T12:31:27.593Z,86.20
2019-05-25T12:33:54.847Z,89.40
2019-05-25T12:36:22.156Z,90.90
2019-05-25T12:38:49.837Z,78.20
2019-05-25T12:41:18.206Z,87.90
2019-05-25T12:43:46.712Z,90.50
2019-05-25T12:46:14.827Z,90.00
2019-05-25T12:59:52.178Z,77.60
2019-05-25T13:06:01.138Z,82.30
2019-05-25T13:08:31.301Z,78.90
2019-05-25T13:10:59.724Z,80.80
2019-05-25T13:13:28.652Z,85.50
2019-05-25T13:15:56.279Z,86.60
2019-05-25T13:18:25.657Z,86.90
2019-05-25T13:20:54.186Z,87.30
2019-05-25T13:23:23.196Z,88.50
2019-05-25T13:25:50.518Z,89.00
2019-05-25T13:28:18.154Z,90.60
2019-05-25T13:30:45.497Z,88.50
2019-05-25T13:33:14.229Z,90.00
2019-05-25T13:35:41.597Z,86.60
2019-05-25T13:38:09.947Z,90.10
2019-05-25T13:40:37.718Z,89.60
2019-05-25T13:43:06.911Z,91.30
2019-05-25T13:45:34.572Z,90.20
2019-05-25T13:48:01.896Z,90.80
2019-05-25T13:50:29.261Z,89.70
2019-05-25T13:52:57.369Z,90.30
2019-05-25T13:55:24.672Z,91.00
2019-05-25T13:58:14.270Z,90.60
2019-05-25T14:00:42.398Z,90.40
2019-05-25T14:03:11.862Z,92.60
2019-05-25T14:05:39.063Z,91.30
2019-05-25T14:08:07.414Z,93.70
2019-05-25T14:10:35.616Z,94.90
2019-05-25T14:13:03.556Z,94.70
2019-05-25T14:15:34.748Z,93.50
2019-05-25T14:18:03.050Z,89.20
2019-05-25T14:20:31.073Z,91.90
2019-05-25T14:22:59.446Z,90.90
2019-05-25T14:25:26.877Z,90.40
2019-05-25T14:27:54.327Z,89.70
2019-05-25T14:30:23.153Z,90.50
2019-05-25T14:32:50.934Z,90.90
2019-05-25T14:35:18.345Z,91.60
2019-05-25T14:37:47.277Z,90.20
2019-05-25T14:40:16.919Z,92.00
2019-05-25T14:42:51.246Z,91.50
2019-05-25T14:45:18.876Z,93.10
2019-05-25T14:47:46.165Z,93.20
2019-05-25T14:50:14.137Z,92.70
2019-05-25T14:52:43.477Z,92.40
2019-05-25T14:55:11.356Z,93.40
2019-05-25T14:57:39.976Z,92.50
2019-05-25T15:00:09.152Z,92.50
2019-05-25T15:02:36.494Z,93.20
2019-05-25T15:05:04.592Z,92.80
2019-05-25T15:07:31.824Z,94.60
2019-05-25T15:09:59.155Z,93.50
2019-05-25T15:12:26.559Z,93.30
2019-05-25T15:14:53.965Z,93.70
2019-05-25T15:17:21.723Z,94.10
2019-05-25T15:19:49.346Z,93.60
2019-05-25T15:22:16.703Z,93.10
2019-05-25T15:24:44.714Z,94.10
2019-05-25T15:27:12.445Z,94.60
2019-05-25T15:29:39.853Z,95.20
2019-05-25T15:32:19.461Z,96.40
2019-05-25T15:34:36.953Z,96.30
2019-05-25T15:37:04.425Z,95.20
2019-05-25T15:39:32.108Z,95.50
2019-05-25T15:41:59.482Z,94.80
2019-05-25T15:44:26.878Z,95.60
2019-05-25T15:46:54.294Z,94.90
2019-05-25T15:49:32.696Z,94.20
2019-05-25T15:51:55.753Z,94.90
2019-05-25T15:54:23.371Z,95.60
2019-05-25T15:56:51.848Z,95.50
2019-05-25T15:59:23.199Z,98.10
2019-05-25T16:01:48.608Z,95.90
2019-05-25T16:04:15.881Z,96.30
2019-05-25T16:06:43.163Z,98.00
2019-05-25T16:09:10.532Z,95.90
2019-05-25T16:11:37.928Z,99.20
2019-05-25T16:14:07.706Z,98.90
2019-05-25T16:16:38.927Z,97.20
2019-05-25T16:19:06.679Z,97.80
2019-05-25T16:21:34.814Z,98.30
2019-05-25T16:24:03.501Z,98.10
2019-05-25T16:26:44.985Z,97.60
2019-05-25T16:29:01.127Z,98.00
2019-05-25T16:31:29.068Z,96.50
2019-05-25T16:33:57.060Z,96.90
2019-05-25T16:36:26.681Z,97.50
2019-05-25T16:38:54.071Z,98.10
2019-05-25T16:41:21.891Z,96.80
2019-05-25T16:43:49.622Z,98.40
2019-05-25T16:46:17.480Z,98.40
2019-05-25T16:48:45.162Z,98.60
2019-05-25T16:51:13.450Z,98.80
2019-05-25T16:53:41.215Z,98.70
2019-05-25T16:56:10.330Z,98.50
2019-05-25T16:58:38.173Z,99.90
2019-05-25T17:01:06.953Z,99.90
2019-05-25T17:03:36.549Z,99.20
2019-05-25T17:06:03.845Z,99.00
2019-05-25T17:08:32.153Z,99.00
2019-05-25T17:11:00.491Z,98.90
2019-05-25T17:13:28.239Z,98.30
2019-05-25T17:15:55.552Z,98.50
2019-05-25T17:18:22.871Z,99.10
2019-05-25T17:20:50.804Z,99.90
2019-05-25T17:23:19.285Z,98.90
2019-05-25T17:25:46.852Z,99.80
2019-05-25T17:28:14.529Z,99.90
2019-05-25T17:30:46.507Z,99.90
2019-05-25T17:33:14.263Z,99.90
2019-05-25T17:35:41.646Z,99.90
2019-05-25T17:38:10.056Z,99.90
2019-05-25T17:40:37.973Z,99.90
2019-05-25T17:43:05.358Z,99.90
2019-05-25T17:45:33.049Z,99.90
2019-05-25T17:48:01.496Z,99.90
2019-05-25T17:50:32.327Z,99.90
2019-05-25T17:53:00.216Z,99.90
2019-05-25T17:55:29.113Z,99.90
2019-05-25T17:57:57.126Z,99.90
2019-05-25T18:00:46.467Z,99.90
2019-05-25T18:03:15.769Z,99.90
2019-05-25T18:05:43.656Z,99.90
2019-05-25T18:08:11.089Z,99.90
2019-05-25T18:10:52.051Z,99.90
2019-05-25T18:13:08.583Z,99.90
2019-05-25T18:15:35.822Z,99.90
2019-05-25T18:18:04.443Z,99.90
2019-05-25T18:20:32.561Z,99.90
2019-05-25T18:23:01.474Z,99.90
2019-05-25T18:25:29.231Z,99.90
2019-05-25T18:27:56.507Z,99.90
2019-05-25T18:30:24.576Z,99.90
2019-05-25T18:32:51.883Z,99.90
2019-05-25T18:35:19.184Z,99.90
2019-05-25T18:37:47.172Z,99.90
2019-05-25T18:40:15.016Z,99.90
2019-05-25T18:42:42.260Z,99.90
2019-05-25T18:45:09.937Z,99.90
2019-05-25T18:47:37.501Z,99.90
2019-05-25T18:50:06.604Z,99.90
2019-05-25T18:52:34.255Z,99.90
2019-05-25T18:55:02.010Z,99.90
2019-05-25T18:57:29.564Z,99.90
2019-05-25T18:59:56.869Z,99.90
2019-05-25T19:02:24.114Z,99.90
2019-05-25T19:04:59.446Z,99.90
2019-05-25T19:07:21.544Z,99.90
2019-05-25T19:09:48.782Z,99.90
2019-05-25T19:12:16.017Z,99.90
2019-05-25T19:14:43.715Z,99.90
2019-05-25T19:17:11.077Z,99.90
2019-05-25T19:19:38.372Z,99.90
2019-05-25T19:22:06.016Z,99.90
2019-05-25T19:24:33.329Z,99.90
2019-05-25T19:27:02.410Z,99.90
2019-05-25T19:29:29.724Z,99.90
2019-05-25T19:31:57.437Z,99.90
2019-05-25T19:34:25.226Z,99.90
2019-05-25T19:36:53.193Z,99.90
2019-05-25T19:39:20.392Z,99.90
2019-05-25T19:41:47.986Z,99.90
2019-05-25T19:44:15.273Z,99.90
2019-05-25T19:46:43.180Z,99.90
2019-05-25T19:49:10.487Z,99.90
2019-05-25T19:51:37.638Z,99.90
2019-05-25T19:54:05.363Z,99.90
2019-05-25T19:56:33.029Z,99.90
2019-05-25T19:59:00.290Z,99.90
2019-05-25T20:01:28.003Z,99.90
2019-05-25T20:03:57.406Z,99.90
2019-05-25T20:06:24.513Z,99.90
2019-05-25T20:08:51.757Z,99.90
2019-05-25T20:11:19.428Z,99.90
2019-05-25T20:13:47.493Z,99.90
2019-05-25T20:16:15.129Z,99.90
2019-05-25T20:18:42.731Z,99.90
2019-05-25T20:21:10.020Z,99.90
2019-05-25T20:23:37.273Z,99.90
2019-05-25T20:26:04.653Z,99.90
2019-05-25T20:28:31.886Z,99.90
2019-05-25T20:30:59.263Z,99.90
2019-05-25T20:33:27.959Z,99.90
2019-05-25T20:35:55.753Z,99.90
2019-05-25T20:38:23.070Z,99.90
2019-05-25T20:40:50.361Z,99.90
2019-05-25T20:43:18.531Z,99.90
2019-05-25T20:45:46.157Z,99.90
2019-05-25T20:48:13.484Z,99.90
2019-05-25T20:50:40.926Z,99.90
2019-05-25T20:53:08.169Z,99.90
2019-05-25T20:55:35.451Z,99.90
2019-05-25T20:58:02.696Z,99.90
2019-05-25T21:00:29.973Z,99.90
2019-05-25T21:03:06.223Z,99.90
2019-05-25T21:05:26.756Z,99.90
2019-05-25T21:07:54.075Z,99.90
2019-05-25T21:10:21.648Z,99.90
2019-05-25T21:12:48.888Z,99.90
2019-05-25T21:15:16.473Z,99.90
2019-05-25T21:17:44.095Z,99.90
2019-05-25T21:20:12.356Z,99.90
2019-05-25T21:22:39.948Z,99.90
2019-05-25T21:25:07.426Z,99.90
2019-05-25T21:27:35.200Z,99.90
2019-05-25T21:30:03.395Z,99.90
2019-05-25T21:32:30.759Z,99.90
2019-05-25T21:34:58.187Z,99.90
2019-05-25T21:37:25.481Z,99.90
2019-05-25T21:39:52.728Z,99.90
2019-05-25T21:42:20.078Z,99.90
2019-05-25T21:44:47.496Z,99.90
2019-05-25T21:47:15.235Z,99.90
2019-05-25T21:49:42.484Z,99.90
2019-05-25T21:52:10.170Z,99.90
2019-05-25T21:54:37.544Z,99.90
2019-05-25T21:57:05.277Z,99.90
2019-05-25T21:59:32.961Z,99.90
2019-05-25T22:02:00.893Z,99.90
2019-05-25T22:04:28.585Z,99.90
2019-05-25T22:06:56.214Z,99.90
2019-05-25T22:09:23.566Z,99.90
2019-05-25T22:11:51.242Z,99.90
2019-05-25T22:14:18.485Z,99.90
2019-05-25T22:16:45.988Z,99.90
2019-05-25T22:19:13.297Z,99.90
2019-05-25T22:21:40.717Z,99.90
2019-05-25T22:24:08.519Z,99.90
2019-05-25T22:26:35.817Z,99.90
2019-05-25T22:29:03.137Z,99.90
2019-05-25T22:31:30.847Z,99.90
2019-05-25T22:33:59.352Z,99.90
2019-05-25T22:36:39.727Z,99.90
2019-05-25T22:38:56.705Z,99.90
2019-05-25T22:41:24.299Z,99.90
2019-05-25T22:43:53.541Z,99.90
2019-05-25T22:46:20.976Z,99.90
2019-05-25T22:48:48.568Z,99.90
2019-05-25T22:51:16.348Z,99.90
2019-05-25T22:53:43.788Z,99.90
2019-05-25T22:56:11.497Z,99.90
2019-05-25T22:58:39.165Z,99.90
2019-05-25T23:01:06.477Z,99.90
2019-05-25T23:03:36.628Z,99.90
2019-05-25T23:06:04.120Z,99.90
2019-05-25T23:08:31.553Z,99.90
2019-05-25T23:10:58.849Z,99.90
2019-05-25T23:13:26.434Z,99.90
2019-05-25T23:15:53.731Z,99.90
2019-05-25T23:18:21.169Z,99.90
2019-05-25T23:20:48.524Z,99.90
2019-05-25T23:23:15.900Z,99.90
2019-05-25T23:25:43.124Z,99.90
2019-05-25T23:28:11.179Z,99.90
2019-05-25T23:30:39.103Z,99.90
2019-05-25T23:33:06.641Z,99.90
2019-05-25T23:35:34.195Z,99.90
2019-05-25T23:38:03.599Z,99.90
2019-05-25T23:40:30.776Z,99.90
2019-05-25T23:42:58.086Z,99.90
2019-05-25T23:45:28.195Z,99.90
2019-05-25T23:47:57.254Z,99.90
2019-05-25T23:50:24.957Z,99.90
2019-05-25T23:52:52.260Z,99.90
2019-05-25T23:55:19.666Z,99.90
2019-05-25T23:57:48.053Z,99.90
